Time,TemperatureF,DewpointF,PressureIn,WindDirection,WindDirectionDegrees,WindSpeedMPH,WindSpeedGustMPH,Humidity,HourlyPrecipIn,Conditions,Clouds,dailyrainin,SoftwareType,DateUTC
2013-04-20 00:04:00,46.7,44.2,30.13,South,180,0.0,0.0,91,0.00,,,0.00,WUHU216HW,2013-04-20 07:04:00,
2013-04-20 00:30:00,46.7,43.9,30.13,SW,225,0.9,0.9,90,0.00,,,0.00,WUHU216HW,2013-04-20 07:30:00,
2013-04-20 00:35:00,46.7,43.9,30.13,SW,225,0.9,0.9,90,0.00,,,0.00,WUHU216HW,2013-04-20 07:35:00,
2013-04-20 00:59:00,46.9,44.1,30.14,SW,225,1.1,1.1,90,0.01,,,0.00,WUHU216HW,2013-04-20 07:59:00,
2013-04-20 01:04:00,46.9,44.1,30.14,SW,225,1.1,1.1,90,0.01,,,0.00,WUHU216HW,2013-04-20 08:04:00,
2013-04-20 01:30:00,46.7,43.9,30.14,SSW,203,2.5,2.5,90,0.01,,,0.00,WUHU216HW,2013-04-20 08:30:00,
2013-04-20 01:35:00,46.7,43.9,30.14,SSW,203,2.5,2.5,90,0.01,,,0.00,WUHU216HW,2013-04-20 08:35:00,
2013-04-20 02:00:00,46.4,43.6,30.14,SSW,203,4.5,4.5,90,0.00,,,0.00,WUHU216HW,2013-04-20 09:00:00,
2013-04-20 02:05:00,46.4,43.6,30.14,SSW,203,4.5,4.5,90,0.00,,,0.00,WUHU216HW,2013-04-20 09:05:00,
2013-04-20 02:30:00,46.0,43.2,30.13,SW,225,3.4,3.4,90,0.00,,,0.00,WUHU216HW,2013-04-20 09:30:00,
2013-04-20 02:35:00,46.0,43.2,30.13,SW,225,3.4,3.4,90,0.00,,,0.00,WUHU216HW,2013-04-20 09:35:00,
2013-04-20 03:00:00,46.0,43.5,30.13,SW,225,0.9,0.9,91,0.00,,,0.00,WUHU216HW,2013-04-20 10:00:00,
2013-04-20 03:05:00,46.0,43.5,30.13,SW,225,0.9,0.9,91,0.00,,,0.00,WUHU216HW,2013-04-20 10:05:00,
2013-04-20 03:30:00,45.8,43.3,30.14,South,180,2.0,2.0,91,0.00,,,0.00,WUHU216HW,2013-04-20 10:30:00,
2013-04-20 03:35:00,45.8,43.3,30.14,South,180,2.0,2.0,91,0.00,,,0.00,WUHU216HW,2013-04-20 10:35:00,
2013-04-20 04:00:00,45.7,43.2,30.14,SW,225,0.0,0.0,91,0.01,,,0.00,WUHU216HW,2013-04-20 11:00:00,
2013-04-20 04:05:00,45.7,43.2,30.14,SW,225,0.0,0.0,91,0.01,,,0.00,WUHU216HW,2013-04-20 11:05:00,
2013-04-20 04:30:00,45.7,43.2,30.15,SSW,203,0.2,0.2,91,0.03,,,0.02,WUHU216HW,2013-04-20 11:30:00,
2013-04-20 04:35:00,45.7,43.2,30.15,SSW,203,0.2,0.2,91,0.03,,,0.02,WUHU216HW,2013-04-20 11:35:00,
2013-04-20 04:40:00,45.7,43.2,30.15,SSW,203,0.2,0.2,91,0.03,,,0.02,WUHU216HW,2013-04-20 11:40:00,
2013-04-20 05:00:00,45.5,43.0,30.16,North,0,0.4,0.4,91,0.04,,,0.04,WUHU216HW,2013-04-20 12:00:00,
2013-04-20 05:05:00,45.5,43.0,30.16,North,0,0.4,0.4,91,0.04,,,0.04,WUHU216HW,2013-04-20 12:05:00,
2013-04-20 05:30:00,45.7,43.2,30.16,ESE,113,1.1,1.1,91,0.09,,,0.06,WUHU216HW,2013-04-20 12:30:00,
2013-04-20 05:35:00,45.7,43.2,30.16,ESE,113,1.1,1.1,91,0.09,,,0.06,WUHU216HW,2013-04-20 12:35:00,
2013-04-20 06:00:00,45.5,43.0,30.17,SE,135,0.0,0.0,91,0.14,,,0.13,WUHU216HW,2013-04-20 13:00:00,
2013-04-20 06:05:00,45.5,43.0,30.17,SE,135,0.0,0.0,91,0.14,,,0.13,WUHU216HW,2013-04-20 13:05:00,
2013-04-20 06:30:00,45.5,43.0,30.17,SE,135,0.0,0.0,91,0.11,,,0.20,WUHU216HW,2013-04-20 13:30:00,
2013-04-20 06:35:00,45.5,43.0,30.17,SE,135,0.0,0.0,91,0.11,,,0.20,WUHU216HW,2013-04-20 13:35:00,
2013-04-20 07:00:00,45.3,42.8,30.17,SE,135,0.0,0.0,91,0.07,,,0.25,WUHU216HW,2013-04-20 14:00:00,
2013-04-20 07:05:00,45.3,42.8,30.17,SE,135,0.0,0.0,91,0.07,,,0.25,WUHU216HW,2013-04-20 14:05:00,
2013-04-20 07:30:00,45.8,43.3,30.18,South,180,0.4,0.4,91,0.06,,,0.27,WUHU216HW,2013-04-20 14:30:00,
2013-04-20 07:35:00,45.8,43.3,30.18,South,180,0.4,0.4,91,0.06,,,0.27,WUHU216HW,2013-04-20 14:35:00,
2013-04-20 10:17:00,45.1,42.6,30.20,SW,225,6.0,6.0,91,0.00,,,0.31,WUHU216HW,2013-04-20 17:17:00,
2013-04-20 10:22:00,45.1,42.6,30.21,SW,225,1.6,6.0,91,0.00,,,0.37,WUHU216HW,2013-04-20 17:22:00,
2013-04-20 10:27:00,45.1,42.6,30.21,SW,225,2.9,6.0,91,0.00,,,0.37,WUHU216HW,2013-04-20 17:27:00,
2013-04-20 10:32:00,45.1,42.6,30.21,SSW,203,2.5,4.3,91,0.01,,,0.38,WUHU216HW,2013-04-20 17:32:00,
2013-04-20 10:37:00,45.1,42.6,30.21,WSW,248,0.7,3.8,91,0.01,,,0.38,WUHU216HW,2013-04-20 17:37:00,
2013-04-20 10:42:00,45.1,42.6,30.21,SW,225,1.1,3.1,91,0.01,,,0.38,WUHU216HW,2013-04-20 17:42:00,
2013-04-20 10:47:00,45.1,42.6,30.21,WSW,248,1.6,1.8,91,0.01,,,0.38,WUHU216HW,2013-04-20 17:47:00,
2013-04-20 10:52:00,45.1,42.6,30.21,SW,225,1.6,1.8,91,0.01,,,0.38,WUHU216HW,2013-04-20 17:52:00,
2013-04-20 10:57:00,45.3,42.8,30.21,SSW,203,1.8,3.6,91,0.01,,,0.38,WUHU216HW,2013-04-20 17:57:00,
2013-04-20 11:02:00,45.3,42.8,30.21,SSW,203,0.4,4.0,91,0.01,,,0.38,WUHU216HW,2013-04-20 18:02:00,
2013-04-20 11:07:00,45.3,42.8,30.22,West,270,0.2,4.0,91,0.01,,,0.38,WUHU216HW,2013-04-20 18:07:00,
2013-04-20 11:12:00,45.3,42.8,30.22,SW,225,2.5,4.0,91,0.01,,,0.38,WUHU216HW,2013-04-20 18:12:00,
2013-04-20 11:17:00,45.3,42.8,30.22,SW,225,3.6,4.0,91,0.01,,,0.38,WUHU216HW,2013-04-20 18:17:00,
2013-04-20 11:22:00,45.3,42.8,30.22,South,180,1.6,4.0,91,0.01,,,0.38,WUHU216HW,2013-04-20 18:22:00,
2013-04-20 11:27:00,45.3,42.8,30.22,SSW,203,1.8,3.6,91,0.01,,,0.38,WUHU216HW,2013-04-20 18:27:00,
2013-04-20 11:32:00,45.3,42.8,30.22,SW,225,2.5,3.4,91,0.00,,,0.38,WUHU216HW,2013-04-20 18:32:00,
2013-04-20 11:37:00,45.3,42.8,30.22,SW,225,2.0,3.4,91,0.00,,,0.38,WUHU216HW,2013-04-20 18:37:00,
2013-04-20 11:42:00,45.5,43.0,30.22,SSW,203,0.7,3.4,91,0.00,,,0.38,WUHU216HW,2013-04-20 18:42:00,
2013-04-20 11:47:00,45.5,43.0,30.22,SW,225,2.5,3.4,91,0.00,,,0.38,WUHU216HW,2013-04-20 18:47:00,
2013-04-20 11:52:00,45.7,43.2,30.22,SW,225,1.8,2.5,91,0.00,,,0.38,WUHU216HW,2013-04-20 18:52:00,
2013-04-20 12:24:00,46.2,43.7,30.21,SW,225,0.4,0.4,91,0.00,,,0.38,WUHU216HW,2013-04-20 19:24:00,
2013-04-20 12:29:00,46.9,44.4,30.21,SSW,203,2.0,4.0,91,0.00,,,0.38,WUHU216HW,2013-04-20 19:29:00,
2013-04-20 12:34:00,47.1,44.3,30.21,SW,225,0.7,4.0,90,0.00,,,0.38,WUHU216HW,2013-04-20 19:34:00,
2013-04-20 12:39:00,47.1,44.0,30.21,SSW,203,1.1,3.4,89,0.00,,,0.38,WUHU216HW,2013-04-20 19:39:00,
2013-04-20 12:44:00,46.9,43.8,30.21,SW,225,1.3,2.5,89,0.00,,,0.38,WUHU216HW,2013-04-20 19:44:00,
2013-04-20 12:49:00,46.7,43.6,30.21,SW,225,1.8,4.0,89,0.00,,,0.38,WUHU216HW,2013-04-20 19:49:00,
2013-04-20 12:54:00,46.7,43.6,30.21,East,90,1.3,4.0,89,0.00,,,0.38,WUHU216HW,2013-04-20 19:54:00,
2013-04-20 12:59:00,46.7,43.9,30.21,SE,135,1.1,2.7,90,0.00,,,0.38,WUHU216HW,2013-04-20 19:59:00,
2013-04-20 13:04:00,46.9,44.1,30.21,SE,135,1.6,1.8,90,0.00,,,0.38,WUHU216HW,2013-04-20 20:04:00,
2013-04-20 13:09:00,47.1,44.3,30.21,SSE,158,0.4,2.5,90,0.00,,,0.38,WUHU216HW,2013-04-20 20:09:00,
2013-04-20 13:14:00,47.1,44.3,30.20,North,0,0.0,2.5,90,0.00,,,0.38,WUHU216HW,2013-04-20 20:14:00,
2013-04-20 13:19:00,47.1,44.3,30.20,SE,135,0.7,1.1,90,0.00,,,0.38,WUHU216HW,2013-04-20 20:19:00,
2013-04-20 13:24:00,47.1,44.3,30.20,SE,135,0.7,2.0,90,0.00,,,0.38,WUHU216HW,2013-04-20 20:24:00,
2013-04-20 13:29:00,47.1,44.3,30.20,SSW,203,2.7,2.7,90,0.00,,,0.38,WUHU216HW,2013-04-20 20:29:00,
2013-04-20 13:34:00,47.3,44.5,30.20,ENE,68,1.3,2.7,90,0.00,,,0.38,WUHU216HW,2013-04-20 20:34:00,
2013-04-20 13:39:00,47.5,44.7,30.20,NE,45,1.1,2.5,90,0.00,,,0.38,WUHU216HW,2013-04-20 20:39:00,
2013-04-20 13:44:00,47.8,45.0,30.19,ENE,68,1.1,3.4,90,0.00,,,0.38,WUHU216HW,2013-04-20 20:44:00,
2013-04-20 13:49:00,47.8,45.0,30.19,ESE,113,0.4,3.4,90,0.00,,,0.38,WUHU216HW,2013-04-20 20:49:00,
2013-04-20 13:54:00,48.0,44.9,30.19,NE,45,0.2,1.8,89,0.00,,,0.38,WUHU216HW,2013-04-20 20:54:00,
2013-04-20 13:59:00,48.2,45.1,30.19,SE,135,0.7,1.6,89,0.00,,,0.38,WUHU216HW,2013-04-20 20:59:00,
2013-04-20 14:04:00,48.2,45.1,30.19,NNE,23,0.2,1.6,89,0.00,,,0.38,WUHU216HW,2013-04-20 21:04:00,
2013-04-20 14:09:00,48.2,45.1,30.19,NNW,338,0.0,1.1,89,0.00,,,0.38,WUHU216HW,2013-04-20 21:09:00,
2013-04-20 14:14:00,48.2,45.1,30.19,North,0,0.4,0.9,89,0.00,,,0.38,WUHU216HW,2013-04-20 21:14:00,
2013-04-20 14:19:00,48.2,45.4,30.19,SE,135,0.4,1.1,90,0.00,,,0.38,WUHU216HW,2013-04-20 21:19:00,
2013-04-20 14:24:00,48.2,45.4,30.19,NNE,23,0.9,1.3,90,0.00,,,0.38,WUHU216HW,2013-04-20 21:24:00,
2013-04-20 14:29:00,48.4,45.6,30.19,North,0,0.0,1.3,90,0.00,,,0.38,WUHU216HW,2013-04-20 21:29:00,
2013-04-20 14:34:00,48.5,45.7,30.19,North,0,0.0,0.9,90,0.00,,,0.38,WUHU216HW,2013-04-20 21:34:00,
2013-04-20 14:39:00,48.4,45.6,30.19,NNE,23,0.4,0.4,90,0.00,,,0.38,WUHU216HW,2013-04-20 21:39:00,
2013-04-20 14:44:00,48.4,45.6,30.19,SE,135,1.6,1.8,90,0.00,,,0.38,WUHU216HW,2013-04-20 21:44:00,
2013-04-20 14:49:00,48.5,45.7,30.19,SE,135,0.9,1.8,90,0.00,,,0.38,WUHU216HW,2013-04-20 21:49:00,
2013-04-20 14:54:00,48.5,45.7,30.19,ENE,68,1.1,1.6,90,0.00,,,0.38,WUHU216HW,2013-04-20 21:54:00,
2013-04-20 14:59:00,48.5,45.7,30.19,ENE,68,0.4,1.1,90,0.00,,,0.38,WUHU216HW,2013-04-20 21:59:00,
2013-04-20 15:04:00,48.5,45.7,30.19,ENE,68,0.0,1.1,90,0.00,,,0.38,WUHU216HW,2013-04-20 22:04:00,
2013-04-20 15:09:00,48.7,45.9,30.19,ENE,68,0.0,0.7,90,0.00,,,0.38,WUHU216HW,2013-04-20 22:09:00,
2013-04-20 15:14:00,48.7,45.9,30.19,ESE,113,1.1,1.1,90,0.00,,,0.38,WUHU216HW,2013-04-20 22:14:00,
2013-04-20 15:19:00,48.7,45.9,30.19,ESE,113,0.0,1.1,90,0.00,,,0.38,WUHU216HW,2013-04-20 22:19:00,
2013-04-20 15:24:00,48.9,46.1,30.19,SE,135,0.0,1.1,90,0.00,,,0.38,WUHU216HW,2013-04-20 22:24:00,
2013-04-20 15:29:00,48.9,46.1,30.19,SSW,203,0.0,0.4,90,0.00,,,0.38,WUHU216HW,2013-04-20 22:29:00,
2013-04-20 15:34:00,49.1,46.0,30.19,SW,225,1.8,1.8,89,0.00,,,0.38,WUHU216HW,2013-04-20 22:34:00,
2013-04-20 15:39:00,49.3,45.9,30.19,South,180,2.2,3.8,88,0.00,,,0.38,WUHU216HW,2013-04-20 22:39:00,
2013-04-20 15:44:00,49.3,45.9,30.19,WSW,248,1.3,3.8,88,0.00,,,0.38,WUHU216HW,2013-04-20 22:44:00,
2013-04-20 15:49:00,49.3,46.2,30.19,SW,225,5.4,5.4,89,0.00,,,0.38,WUHU216HW,2013-04-20 22:49:00,
2013-04-20 15:54:00,49.3,45.9,30.19,WSW,248,5.6,7.4,88,0.00,,,0.38,WUHU216HW,2013-04-20 22:54:00,
2013-04-20 15:59:00,49.3,45.6,30.19,SW,225,6.3,7.4,87,0.00,,,0.38,WUHU216HW,2013-04-20 22:59:00,
2013-04-20 16:04:00,49.3,45.6,30.19,SW,225,2.9,6.9,87,0.00,,,0.38,WUHU216HW,2013-04-20 23:04:00,
2013-04-20 16:09:00,49.3,45.3,30.18,South,180,2.5,6.3,86,0.00,,,0.38,WUHU216HW,2013-04-20 23:09:00,
2013-04-20 16:14:00,49.3,45.6,30.18,South,180,3.8,4.7,87,0.00,,,0.38,WUHU216HW,2013-04-20 23:14:00,
2013-04-20 16:19:00,49.3,45.9,30.18,South,180,3.1,5.6,88,0.00,,,0.38,WUHU216HW,2013-04-20 23:19:00,
2013-04-20 16:24:00,49.3,45.9,30.18,SSW,203,1.6,5.6,88,0.00,,,0.38,WUHU216HW,2013-04-20 23:24:00,
2013-04-20 16:29:00,49.3,45.6,30.18,SSW,203,1.8,3.1,87,0.00,,,0.38,WUHU216HW,2013-04-20 23:29:00,
2013-04-20 16:34:00,49.3,45.6,30.18,SW,225,0.7,3.1,87,0.01,,,0.39,WUHU216HW,2013-04-20 23:34:00,
2013-04-20 16:39:00,49.3,45.6,30.18,SSW,203,1.8,3.4,87,0.01,,,0.39,WUHU216HW,2013-04-20 23:39:00,
2013-04-20 16:44:00,49.3,45.6,30.18,NNW,338,0.9,3.4,87,0.01,,,0.39,WUHU216HW,2013-04-20 23:44:00,
2013-04-20 16:49:00,49.1,45.7,30.19,SW,225,3.4,3.4,88,0.03,,,0.41,WUHU216HW,2013-04-20 23:49:00,
2013-04-20 16:54:00,48.9,45.2,30.18,SW,225,2.9,4.9,87,0.05,,,0.43,WUHU216HW,2013-04-20 23:54:00,
2013-04-20 16:59:00,48.7,45.3,30.18,SW,225,1.3,4.9,88,0.06,,,0.44,WUHU216HW,2013-04-20 23:59:00,
2013-04-20 17:04:00,48.7,45.3,30.18,SW,225,1.6,2.2,88,0.07,,,0.45,WUHU216HW,2013-04-21 00:04:00,
2013-04-20 17:09:00,48.5,45.1,30.18,SW,225,1.8,2.5,88,0.08,,,0.46,WUHU216HW,2013-04-21 00:09:00,
2013-04-20 17:14:00,48.5,45.1,30.18,SW,225,2.9,4.5,88,0.09,,,0.47,WUHU216HW,2013-04-21 00:14:00,
2013-04-20 17:19:00,48.4,45.0,30.18,SW,225,4.0,4.5,88,0.10,,,0.48,WUHU216HW,2013-04-21 00:19:00,
2013-04-20 17:24:00,48.2,44.8,30.18,North,0,0.0,4.5,88,0.12,,,0.50,WUHU216HW,2013-04-21 00:24:00,
2013-04-20 17:29:00,48.2,44.8,30.18,SW,225,2.9,4.0,88,0.13,,,0.51,WUHU216HW,2013-04-21 00:29:00,
2013-04-20 17:34:00,48.0,44.6,30.18,NNW,338,0.2,3.6,88,0.13,,,0.52,WUHU216HW,2013-04-21 00:34:00,
2013-04-20 17:39:00,47.8,44.4,30.18,NW,315,0.0,3.6,88,0.14,,,0.53,WUHU216HW,2013-04-21 00:39:00,
2013-04-20 17:44:00,47.8,44.4,30.18,North,0,0.0,0.7,88,0.12,,,0.53,WUHU216HW,2013-04-21 00:44:00,
2013-04-20 17:49:00,47.8,44.7,30.18,North,0,0.0,0.4,89,0.12,,,0.54,WUHU216HW,2013-04-21 00:49:00,
2013-04-20 17:54:00,47.8,44.7,30.18,North,0,0.0,0.0,89,0.12,,,0.56,WUHU216HW,2013-04-21 00:54:00,
2013-04-20 17:59:00,47.8,44.7,30.18,WSW,248,0.4,0.7,89,0.11,,,0.56,WUHU216HW,2013-04-21 00:59:00,
2013-04-20 18:04:00,47.8,45.0,30.18,SW,225,0.9,1.6,90,0.10,,,0.56,WUHU216HW,2013-04-21 01:04:00,
2013-04-20 18:09:00,47.8,45.0,30.18,SW,225,0.4,1.6,90,0.09,,,0.56,WUHU216HW,2013-04-21 01:09:00,
2013-04-20 18:14:00,47.8,45.0,30.18,SW,225,0.7,0.9,90,0.09,,,0.57,WUHU216HW,2013-04-21 01:14:00,
2013-04-20 18:19:00,47.8,45.0,30.18,South,180,0.4,1.1,90,0.08,,,0.57,WUHU216HW,2013-04-21 01:19:00,
2013-04-20 18:24:00,47.8,45.0,30.18,SSE,158,0.0,1.1,90,0.08,,,0.58,WUHU216HW,2013-04-21 01:24:00,
2013-04-20 18:29:00,47.6,44.8,30.18,South,180,0.2,1.1,90,0.07,,,0.58,WUHU216HW,2013-04-21 01:29:00,
2013-04-20 18:34:00,47.6,44.8,30.18,South,180,0.0,0.4,90,0.07,,,0.59,WUHU216HW,2013-04-21 01:34:00,
2013-04-20 18:39:00,47.8,45.0,30.18,SSE,158,0.0,0.9,90,0.06,,,0.59,WUHU216HW,2013-04-21 01:39:00,
2013-04-20 18:44:00,47.6,44.8,30.18,SSW,203,0.4,1.1,90,0.06,,,0.60,WUHU216HW,2013-04-21 01:44:00,
2013-04-20 18:49:00,47.6,44.8,30.17,South,180,1.1,2.0,90,0.06,,,0.60,WUHU216HW,2013-04-21 01:49:00,
2013-04-20 18:54:00,47.6,44.8,30.17,ESE,113,0.0,2.0,90,0.05,,,0.60,WUHU216HW,2013-04-21 01:54:00,
2013-04-20 18:59:00,47.5,44.7,30.17,ESE,113,0.0,1.1,90,0.05,,,0.60,WUHU216HW,2013-04-21 01:59:00,
2013-04-20 19:04:00,47.5,44.7,30.17,ESE,113,0.0,0.0,90,0.04,,,0.60,WUHU216HW,2013-04-21 02:04:00,
2013-04-20 19:09:00,47.3,44.5,30.17,ESE,113,0.0,0.2,90,0.04,,,0.60,WUHU216HW,2013-04-21 02:09:00,
2013-04-20 19:14:00,47.3,44.5,30.17,ESE,113,0.0,0.2,90,0.03,,,0.60,WUHU216HW,2013-04-21 02:14:00,
2013-04-20 19:19:00,47.1,44.3,30.17,South,180,0.7,0.9,90,0.03,,,0.60,WUHU216HW,2013-04-21 02:19:00,
2013-04-20 19:24:00,47.1,44.3,30.17,SE,135,0.0,1.6,90,0.02,,,0.60,WUHU216HW,2013-04-21 02:24:00,
2013-04-20 19:29:00,47.1,44.3,30.17,SE,135,0.0,1.6,90,0.01,,,0.60,WUHU216HW,2013-04-21 02:29:00,
2013-04-20 19:34:00,46.9,44.1,30.17,SE,135,0.0,1.6,90,0.01,,,0.60,WUHU216HW,2013-04-21 02:34:00,
2013-04-20 19:39:00,46.9,44.1,30.17,SE,135,0.0,0.0,90,0.01,,,0.60,WUHU216HW,2013-04-21 02:39:00,
2013-04-20 19:44:00,46.9,44.1,30.17,SE,135,0.0,0.0,90,0.00,,,0.60,WUHU216HW,2013-04-21 02:44:00,
2013-04-20 19:49:00,46.7,43.9,30.17,SE,135,0.0,0.0,90,0.00,,,0.60,WUHU216HW,2013-04-21 02:49:00,
2013-04-20 19:54:00,46.7,43.9,30.17,ESE,113,0.2,0.2,90,0.00,,,0.60,WUHU216HW,2013-04-21 02:54:00,
2013-04-20 19:59:00,46.7,43.9,30.17,ESE,113,0.0,0.2,90,0.00,,,0.60,WUHU216HW,2013-04-21 02:59:00,
2013-04-20 20:04:00,46.6,43.8,30.17,ESE,113,0.0,0.2,90,0.00,,,0.60,WUHU216HW,2013-04-21 03:04:00,
2013-04-20 20:09:00,46.6,43.8,30.17,NW,315,0.0,0.9,90,0.00,,,0.60,WUHU216HW,2013-04-21 03:09:00,
2013-04-20 20:14:00,46.6,43.8,30.17,NW,315,0.0,0.9,90,0.00,,,0.60,WUHU216HW,2013-04-21 03:14:00,
2013-04-20 20:19:00,46.4,43.6,30.17,NW,315,0.0,0.2,90,0.00,,,0.60,WUHU216HW,2013-04-21 03:19:00,
2013-04-20 20:24:00,46.4,43.6,30.17,NW,315,0.0,0.2,90,0.00,,,0.60,WUHU216HW,2013-04-21 03:24:00,
2013-04-20 20:29:00,46.4,43.6,30.17,NW,315,0.0,0.0,90,0.00,,,0.60,WUHU216HW,2013-04-21 03:29:00,
2013-04-20 20:34:00,46.2,43.4,30.17,NW,315,0.0,0.0,90,0.01,,,0.61,WUHU216HW,2013-04-21 03:34:00,
2013-04-20 20:39:00,46.0,43.2,30.17,NW,315,0.0,0.0,90,0.01,,,0.61,WUHU216HW,2013-04-21 03:39:00,
2013-04-20 20:44:00,46.0,43.2,30.17,NW,315,0.0,0.0,90,0.01,,,0.61,WUHU216HW,2013-04-21 03:44:00,
2013-04-20 20:49:00,46.0,43.2,30.18,NW,315,0.0,0.0,90,0.02,,,0.63,WUHU216HW,2013-04-21 03:49:00,
2013-04-20 20:54:00,46.0,43.2,30.18,NW,315,0.0,0.0,90,0.02,,,0.63,WUHU216HW,2013-04-21 03:54:00,
2013-04-20 20:59:00,46.0,43.5,30.18,NW,315,0.0,0.0,91,0.02,,,0.63,WUHU216HW,2013-04-21 03:59:00,
2013-04-20 21:01:00,46.0,43.2,30.18,North,0,0.0,0.0,90,0.02,,,0.63,WUHU216HW,2013-04-21 04:01:00,
2013-04-20 21:06:00,46.0,43.5,30.18,North,0,0.0,0.0,91,0.03,,,0.63,WUHU216HW,2013-04-21 04:06:00,
2013-04-20 21:11:00,46.0,43.5,30.18,North,0,0.0,0.0,91,0.03,,,0.63,WUHU216HW,2013-04-21 04:11:00,
2013-04-20 21:16:00,46.0,43.5,30.18,North,0,0.0,0.0,91,0.03,,,0.63,WUHU216HW,2013-04-21 04:16:00,
2013-04-20 21:21:00,46.0,43.5,30.18,North,0,0.0,0.0,91,0.03,,,0.63,WUHU216HW,2013-04-21 04:21:00,
2013-04-20 21:26:00,45.8,43.3,30.18,North,0,0.0,0.0,91,0.03,,,0.63,WUHU216HW,2013-04-21 04:26:00,
2013-04-20 21:31:00,45.8,43.3,30.18,North,0,0.0,0.0,91,0.03,,,0.63,WUHU216HW,2013-04-21 04:31:00,
2013-04-20 21:36:00,45.7,43.2,30.18,North,0,0.0,0.0,91,0.02,,,0.63,WUHU216HW,2013-04-21 04:36:00,
2013-04-20 21:41:00,45.7,43.2,30.18,North,0,0.0,0.0,91,0.02,,,0.63,WUHU216HW,2013-04-21 04:41:00,
2013-04-20 21:46:00,45.7,43.2,30.19,North,0,0.0,0.0,91,0.01,,,0.63,WUHU216HW,2013-04-21 04:46:00,
2013-04-20 21:51:00,45.7,43.2,30.18,North,0,0.0,0.0,91,0.01,,,0.63,WUHU216HW,2013-04-21 04:51:00,
2013-04-20 21:56:00,45.7,43.2,30.19,North,0,0.0,0.0,91,0.02,,,0.65,WUHU216HW,2013-04-21 04:56:00,
2013-04-20 22:01:00,45.7,43.2,30.18,North,0,0.0,0.0,91,0.01,,,0.65,WUHU216HW,2013-04-21 05:01:00,
2013-04-20 22:06:00,45.5,43.0,30.19,North,0,0.0,0.4,91,0.02,,,0.65,WUHU216HW,2013-04-21 05:06:00,
2013-04-20 22:11:00,45.5,43.0,30.19,North,0,0.0,0.4,91,0.02,,,0.65,WUHU216HW,2013-04-21 05:11:00,
2013-04-20 22:16:00,45.5,43.0,30.19,North,0,0.0,0.4,91,0.02,,,0.65,WUHU216HW,2013-04-21 05:16:00,
2013-04-20 22:21:00,45.5,43.0,30.19,North,0,0.0,0.0,91,0.02,,,0.65,WUHU216HW,2013-04-21 05:21:00,
2013-04-20 22:26:00,45.5,43.0,30.19,North,0,0.2,0.2,91,0.03,,,0.67,WUHU216HW,2013-04-21 05:26:00,
2013-04-20 22:31:00,45.3,42.8,30.19,NNE,23,0.0,0.7,91,0.03,,,0.67,WUHU216HW,2013-04-21 05:31:00,
2013-04-20 22:36:00,45.3,42.8,30.19,NNE,23,0.0,0.7,91,0.03,,,0.67,WUHU216HW,2013-04-21 05:36:00,
2013-04-20 22:41:00,45.3,42.8,30.19,NNE,23,0.0,0.4,91,0.04,,,0.68,WUHU216HW,2013-04-21 05:41:00,
2013-04-20 22:46:00,45.3,42.8,30.19,NNE,23,0.0,0.4,91,0.04,,,0.68,WUHU216HW,2013-04-21 05:46:00,
2013-04-20 22:51:00,45.3,42.8,30.19,NNE,23,0.0,0.0,91,0.04,,,0.68,WUHU216HW,2013-04-21 05:51:00,
2013-04-20 22:56:00,45.3,42.8,30.19,NNE,23,0.0,0.4,91,0.04,,,0.68,WUHU216HW,2013-04-21 05:56:00,
2013-04-20 23:01:00,45.3,42.8,30.19,NE,45,0.0,0.4,91,0.04,,,0.68,WUHU216HW,2013-04-21 06:01:00,
2013-04-20 23:06:00,45.3,42.8,30.19,NE,45,0.0,0.0,91,0.03,,,0.68,WUHU216HW,2013-04-21 06:06:00,
2013-04-20 23:11:00,45.3,42.8,30.19,NE,45,0.0,0.0,91,0.03,,,0.68,WUHU216HW,2013-04-21 06:11:00,
2013-04-20 23:16:00,45.3,42.8,30.19,NE,45,0.0,0.0,91,0.03,,,0.68,WUHU216HW,2013-04-21 06:16:00,
2013-04-20 23:21:00,45.3,42.8,30.19,NE,45,0.0,0.0,91,0.02,,,0.68,WUHU216HW,2013-04-21 06:21:00,
2013-04-20 23:26:00,45.3,42.8,30.19,NE,45,0.0,0.0,91,0.03,,,0.70,WUHU216HW,2013-04-21 06:26:00,
2013-04-20 23:31:00,45.3,42.8,30.20,NE,45,0.0,0.2,91,0.03,,,0.70,WUHU216HW,2013-04-21 06:31:00,
2013-04-20 23:36:00,45.3,42.8,30.19,ENE,68,0.0,0.7,91,0.02,,,0.70,WUHU216HW,2013-04-21 06:36:00,
2013-04-20 23:41:00,45.3,42.8,30.19,ENE,68,0.0,0.7,91,0.03,,,0.70,WUHU216HW,2013-04-21 06:41:00,
2013-04-20 23:46:00,45.1,42.6,30.19,ENE,68,0.0,0.0,91,0.03,,,0.70,WUHU216HW,2013-04-21 06:46:00,
2013-04-20 23:51:00,45.1,42.6,30.19,ENE,68,0.0,0.0,91,0.03,,,0.70,WUHU216HW,2013-04-21 06:51:00,
2013-04-20 23:56:00,45.1,42.6,30.19,ENE,68,0.0,0.0,91,0.03,,,0.72,WUHU216HW,2013-04-21 06:56:00,